Hebei Shijiazhuang — VRIS2 — position and weather

sailwx.info

Track history (hours):
 
Tides and Currents Weather Stations Pressure Air Temp Water Temp Dewpoint Dewpoint Depression Visibility Wind Speed Wind Dir Waves Ship Positions

Hebei Shijiazhuang

Last reported at 2018-May-24 03:46 UTC. Time now 2018-May-26 15:31 UTC.
Position N 30°02' E 124°13'.

Length 235 m.

Type: Cargo ship. MMSI: 477899000.

Date/timePositionNaut miles runAvg speedWind from/ knotsBaromVisibWave heightAir tempDewpointWater temp
2018-May-24 03:46N 30°02' E 124°13'814.3
2018-May-24 03:13N 30°09' E 124°12'514.3
2018-May-24 02:54N 30°14' E 124°12'614.2
2018-May-24 02:29N 30°20' E 124°11'2514.0
2018-May-24 00:40N 30°45' E 124°07'313.5
2018-May-24 00:29N 30°48' E 124°07'613.3
2018-May-24 00:00N 30°54' E 124°06'713.1
2018-May-23 23:30N 31°00' E 124°05'713.2
2018-May-23 23:00N 31°07' E 124°04'613.0
2018-May-23 22:30N 31°13' E 124°03'613.1
2018-May-23 22:00N 31°20' E 124°02'612.7
2018-May-23 21:30N 31°26' E 124°01'712.8
2018-May-23 21:00N 31°33' E 123°60'1113.0
2018-May-23 20:10N 31°43' E 123°58'213.3
2018-May-23 19:59N 31°46' E 123°58'713.5
2018-May-23 19:27N 31°53' E 123°58'713.7
2018-May-23 18:58N 31°60' E 123°57'613.9
2018-May-23 18:30N 32°06' E 123°57'714.5
2018-May-23 18:00N 32°13' E 123°57'714.8
2018-May-23 17:30N 32°21' E 123°57'714.7
2018-May-23 17:00N 32°28' E 123°57'23613.5
2018-May-22 23:32N 36°24' E 123°43'113.9
2018-May-22 23:29N 36°24' E 123°43'814.0
2018-May-22 22:57N 36°32' E 123°43'7413.0
2018-May-22 17:16N 37°36' E 122°56'313.1
2018-May-22 17:00N 37°38' E 122°52'713.0
2018-May-22 16:30N 37°40' E 122°45'612.7
2018-May-22 16:00N 37°43' E 122°38'713.0
2018-May-22 15:30N 37°47' E 122°31'613.0
2018-May-22 15:00N 37°47' E 122°23'713.2
2018-May-22 14:30N 37°47' E 122°15'713.4
2018-May-22 13:57N 37°47' E 122°05'613.2
2018-May-22 13:30N 37°48' E 121°58'713.7
2018-May-22 13:00N 37°50' E 121°50'713.6
2018-May-22 12:31N 37°52' E 121°41'713.5
2018-May-22 12:01N 37°53' E 121°33'713.2
2018-May-22 11:31N 37°54' E 121°25'612.8
2018-May-22 11:00N 37°55' E 121°17'612.4
2018-May-22 10:30N 37°56' E 121°09'612.4
2018-May-22 10:01N 37°58' E 121°01'611.9
2018-May-22 09:29N 37°59' E 120°53'612.1
2018-May-22 09:01N 37°60' E 120°46'611.9
2018-May-22 08:31N 38°01' E 120°39'612.0
2018-May-22 08:01N 38°01' E 120°31'612.3
2018-May-22 07:31N 38°01' E 120°24'612.6
2018-May-22 07:01N 37°59' E 120°16'612.9
2018-May-22 06:30N 37°57' E 120°08'713.3
2018-May-22 06:01N 37°53' E 120°02'713.1
2018-May-22 05:30N 37°48' E 119°56'811.7
2018-May-22 04:51N 37°42' E 119°50'512.5
2018-May-22 04:29N 37°37' E 119°51'612.5
2018-May-22 04:00N 37°32' E 119°54'511.1
2018-May-22 03:31N 37°26' E 119°56'2 3.2
2018-May-22 02:58N 37°25' E 119°57'0 0.0
2018-May-22 02:28N 37°25' E 119°57'0 0.0
2018-May-22 01:58N 37°25' E 119°57'0 0.0
2018-May-22 01:28N 37°25' E 119°57'0 0.0
2018-May-22 00:58N 37°25' E 119°57'0 0.0
2018-May-22 00:28N 37°25' E 119°57'0 0.0
2018-May-21 23:58N 37°25' E 119°57'0 0.0
2018-May-21 23:28N 37°25' E 119°57'0 0.0
2018-May-21 22:58N 37°25' E 119°57'0 0.0
2018-May-21 22:28N 37°25' E 119°57'0 0.0
2018-May-21 21:58N 37°25' E 119°57'0 0.0
2018-May-21 21:28N 37°25' E 119°57'0 0.0
2018-May-21 20:58N 37°25' E 119°57'0 0.0
2018-May-21 20:28N 37°25' E 119°57'0 0.0
2018-May-21 19:58N 37°25' E 119°57'0 0.0
2018-May-21 19:28N 37°25' E 119°57'0 0.0
2018-May-21 18:58N 37°25' E 119°57'0 0.0
2018-May-21 18:28N 37°25' E 119°57'0 0.0
2018-May-21 17:58N 37°25' E 119°57'0 0.0
2018-May-21 17:28N 37°25' E 119°57'0 0.0
2018-May-21 16:58N 37°25' E 119°57'0 0.0
2018-May-21 16:28N 37°25' E 119°57'0 0.0
2018-May-21 15:55N 37°25' E 119°57'0 0.0
2018-May-21 15:28N 37°25' E 119°57'0 0.0
2018-May-21 14:58N 37°25' E 119°57'0 0.0
2018-May-21 14:28N 37°25' E 119°57'0 0.0
2018-May-21 13:58N 37°25' E 119°57'0 0.0
2018-May-21 13:28N 37°25' E 119°57'0 0.0
2018-May-21 12:58N 37°25' E 119°57'0 0.0
2018-May-21 12:28N 37°25' E 119°57'0 0.0
2018-May-21 11:58N 37°25' E 119°57'0 0.0
2018-May-21 11:28N 37°25' E 119°57'0 0.0
2018-May-21 10:58N 37°25' E 119°57'0 0.0
2018-May-21 10:28N 37°25' E 119°57'0 0.0
2018-May-21 09:55N 37°25' E 119°57'0 0.0
2018-May-21 09:28N 37°25' E 119°57'0 0.0
2018-May-21 08:52N 37°25' E 119°57'0 0.0
2018-May-21 08:28N 37°25' E 119°57'0 0.0
2018-May-21 07:58N 37°25' E 119°57'0 0.0
2018-May-21 07:28N 37°25' E 119°57'0 0.0
2018-May-21 06:58N 37°25' E 119°57'0 0.0
2018-May-21 06:28N 37°25' E 119°57'0 0.0
2018-May-21 05:58N 37°25' E 119°57'0 0.0
2018-May-21 05:28N 37°25' E 119°57'0 0.0
2018-May-21 04:58N 37°25' E 119°57'0 0.0
2018-May-21 04:28N 37°25' E 119°57'0 0.0
2018-May-21 03:58N 37°25' E 119°57'0 0.0
2018-May-21 03:28N 37°25' E 119°57'0 0.0
2018-May-21 02:58N 37°25' E 119°57'0 0.0
2018-May-21 02:28N 37°25' E 119°57'0 0.0
2018-May-21 01:58N 37°25' E 119°57'0 0.0
2018-May-21 01:28N 37°25' E 119°57'0 0.0
2018-May-21 00:58N 37°25' E 119°57'0 0.0
2018-May-21 00:28N 37°25' E 119°57'0 0.0
2018-May-20 23:58N 37°25' E 119°57'0 0.0
2018-May-20 23:28N 37°25' E 119°57'0 0.0
2018-May-20 22:58N 37°25' E 119°57'0 0.0
2018-May-20 22:28N 37°25' E 119°57'0 0.0
2018-May-20 21:58N 37°25' E 119°57'0 0.0
2018-May-20 21:28N 37°25' E 119°57'0 0.0
2018-May-20 20:58N 37°25' E 119°57'0 0.0
2018-May-20 20:25N 37°25' E 119°57'0 0.0
2018-May-20 19:58N 37°25' E 119°57'0 0.0
2018-May-20 19:28N 37°25' E 119°57'0 0.0
2018-May-20 18:58N 37°25' E 119°57'0 0.0
2018-May-20 18:28N 37°25' E 119°57'0 0.0
2018-May-20 17:58N 37°25' E 119°57'0 0.0
2018-May-20 17:28N 37°25' E 119°57'0 0.0
2018-May-20 16:58N 37°25' E 119°57'0 0.0
2018-May-20 16:28N 37°25' E 119°57'0 0.0
2018-May-20 15:58N 37°25' E 119°57'0 0.0
2018-May-20 15:28N 37°25' E 119°57'0 0.0
2018-May-20 14:58N 37°25' E 119°57'0 0.0
2018-May-20 14:28N 37°25' E 119°57'0 0.0
2018-May-20 13:58N 37°25' E 119°57'0 0.0
2018-May-20 13:28N 37°25' E 119°57'0 0.0
2018-May-20 12:58N 37°25' E 119°57'0 0.0
2018-May-20 12:28N 37°25' E 119°57'0 0.0
2018-May-20 11:58N 37°25' E 119°57'0 0.0
2018-May-20 11:28N 37°25' E 119°57'0 0.0
2018-May-20 10:58N 37°25' E 119°57'0 0.0
2018-May-20 10:28N 37°25' E 119°57'0 0.0
2018-May-20 09:58N 37°25' E 119°57'0 0.0
2018-May-20 09:28N 37°25' E 119°57'0 0.0
2018-May-20 08:58N 37°25' E 119°57'0 0.0
2018-May-20 08:28N 37°25' E 119°57'0 0.0
2018-May-20 07:58N 37°25' E 119°57'0 0.0
2018-May-20 07:28N 37°25' E 119°57'0 0.0
2018-May-20 06:55N 37°25' E 119°57'0 0.0
2018-May-20 06:28N 37°25' E 119°57'0 0.0
2018-May-20 05:58N 37°25' E 119°57'0 0.0
2018-May-20 05:28N 37°25' E 119°57'0 0.0
2018-May-20 04:58N 37°25' E 119°57'0 0.0
2018-May-20 04:28N 37°25' E 119°57'0 0.0
2018-May-20 03:58N 37°25' E 119°57'0 0.0
2018-May-20 03:28N 37°25' E 119°57'0 0.0
2018-May-20 02:52N 37°25' E 119°57'0 0.0
2018-May-20 02:25N 37°25' E 119°57'0 0.0
2018-May-20 01:58N 37°25' E 119°57'0 0.0
2018-May-20 01:28N 37°25' E 119°57'0 0.0
2018-May-20 00:58N 37°25' E 119°57'0 0.0
2018-May-20 00:28N 37°25' E 119°57'0 0.0
2018-May-19 23:55N 37°25' E 119°57'0 0.0
2018-May-19 23:28N 37°25' E 119°57'0 0.0
2018-May-19 22:58N 37°25' E 119°57'0 0.0
2018-May-19 22:28N 37°25' E 119°57'0 0.0
2018-May-19 21:55N 37°25' E 119°57'0 0.0
2018-May-19 21:28N 37°25' E 119°57'0 0.0
2018-May-19 20:58N 37°25' E 119°57'0 0.0
2018-May-19 20:28N 37°25' E 119°57'0 0.0
2018-May-19 19:58N 37°25' E 119°57'0 0.0
2018-May-19 19:28N 37°25' E 119°57'0 0.0
2018-May-19 18:58N 37°25' E 119°57'0 0.0
2018-May-19 18:28N 37°25' E 119°57'0 0.0
2018-May-19 17:58N 37°25' E 119°57'0 0.0
2018-May-19 17:28N 37°25' E 119°57'0 0.0
2018-May-19 16:58N 37°25' E 119°57'0 0.0
2018-May-19 16:28N 37°25' E 119°57'0 0.0
2018-May-19 15:58N 37°25' E 119°57'0 0.0
2018-May-19 15:28N 37°25' E 119°57'0 0.0
2018-May-19 14:58N 37°25' E 119°57'0 0.0
2018-May-19 14:28N 37°25' E 119°57'0 0.0
2018-May-19 13:58N 37°25' E 119°57'0 0.0
2018-May-19 13:28N 37°25' E 119°57'0 0.0
2018-May-19 12:58N 37°25' E 119°57'0 0.0
2018-May-19 12:28N 37°25' E 119°57'0 0.0
2018-May-19 11:58N 37°25' E 119°57'0 0.0
2018-May-19 11:28N 37°25' E 119°57'0 0.0
2018-May-19 10:58N 37°25' E 119°57'0 0.0
2018-May-19 10:28N 37°25' E 119°57'0 0.0
2018-May-19 09:58N 37°25' E 119°57'0 0.0
2018-May-19 09:28N 37°25' E 119°57'0 0.0
2018-May-19 08:58N 37°25' E 119°57'0 0.0
2018-May-19 08:25N 37°25' E 119°57'0 0.0
2018-May-19 07:58N 37°25' E 119°57'0 0.0
2018-May-19 07:28N 37°25' E 119°57'0 0.0
2018-May-19 06:58N 37°25' E 119°57'0 0.0
2018-May-19 06:28N 37°25' E 119°57'0 0.0
2018-May-19 06:00N 37°25' E 119°57'0 0.1
2018-May-19 05:30N 37°25' E 119°57'1 1.3
2018-May-19 05:00N 37°26' E 119°57'4 7.5
2018-May-19 04:30N 37°29' E 119°58'4 8.0
2018-May-19 03:59N 37°33' E 119°60'611.7
2018-May-19 03:30N 37°39' E 120°00'612.2
2018-May-19 03:00N 37°45' E 119°60'4 8.1
2018-May-19 02:30N 37°48' E 119°57'1 0.9
2018-May-19 01:53N 37°49' E 119°57'0 0.1
2018-May-19 01:26N 37°49' E 119°57'0 0.0
2018-May-19 00:41N 37°49' E 119°57'0 0.0
2018-May-19 00:29N 37°49' E 119°57'0 0.0
2018-May-18 23:50N 37°49' E 119°57'0 0.1
2018-May-18 23:29N 37°49' E 119°57'0 0.0
2018-May-18 22:59N 37°49' E 119°57'0 0.1
2018-May-18 22:23N 37°49' E 119°57'0 0.0
2018-May-18 21:56N 37°49' E 119°57'0 0.0
2018-May-18 21:29N 37°49' E 119°57'0 0.0
2018-May-18 20:59N 37°49' E 119°57'0 0.0
2018-May-18 20:29N 37°49' E 119°57'0 0.1
2018-May-18 19:47N 37°49' E 119°57'0 0.2
2018-May-18 19:20N 37°49' E 119°57'0 0.2
2018-May-18 18:59N 37°49' E 119°57'0 0.1
2018-May-18 18:26N 37°49' E 119°57'0 0.1
2018-May-18 17:59N 37°49' E 119°57'0 0.0
2018-May-18 17:29N 37°49' E 119°57'0 0.1
2018-May-18 16:59N 37°49' E 119°57'0 0.0
2018-May-18 16:29N 37°49' E 119°57'0 0.0
2018-May-18 15:59N 37°49' E 119°57'0 0.0
2018-May-18 15:23N 37°49' E 119°57'0 0.1
2018-May-18 14:59N 37°49' E 119°57'0 0.0
2018-May-18 14:29N 37°49' E 119°57'0 0.0
2018-May-18 13:56N 37°49' E 119°57'0 0.1
2018-May-18 13:17N 37°49' E 119°57'0 0.1
2018-May-18 12:50N 37°49' E 119°57'0 0.1
2018-May-18 12:29N 37°49' E 119°57'0 0.1
2018-May-18 11:56N 37°49' E 119°57'0 0.1
2018-May-18 11:29N 37°49' E 119°57'0 0.1
2018-May-18 10:56N 37°49' E 119°57'0 0.1
2018-May-18 10:29N 37°49' E 119°57'0 0.1
2018-May-18 09:59N 37°49' E 119°57'0 0.0
2018-May-18 09:29N 37°49' E 119°57'0 0.1
2018-May-18 08:59N 37°49' E 119°57'0 0.0
2018-May-18 08:29N 37°49' E 119°57'0 0.1
2018-May-18 07:59N 37°49' E 119°57'0 0.1
2018-May-18 07:29N 37°49' E 119°57'0 0.0
2018-May-18 06:59N 37°49' E 119°57'0 0.0
2018-May-18 06:29N 37°49' E 119°57'0 0.0
2018-May-18 05:59N 37°49' E 119°57'0 0.0
2018-May-18 05:29N 37°49' E 119°57'0 0.0
2018-May-18 04:59N 37°49' E 119°57'0 0.0
2018-May-18 04:29N 37°49' E 119°57'0 0.0
2018-May-18 03:59N 37°49' E 119°57'0 0.1
2018-May-18 03:29N 37°49' E 119°57'0 0.0
2018-May-18 02:59N 37°49' E 119°57'0 0.1
2018-May-18 02:29N 37°49' E 119°57'0 0.1
2018-May-18 00:32N 37°49' E 119°57'0 0.1
2018-May-18 00:29N 37°49' E 119°57'0 0.0
2018-May-17 23:59N 37°49' E 119°57'0 0.1
2018-May-17 23:29N 37°49' E 119°57'0 0.1
2018-May-17 22:59N 37°49' E 119°57'0 0.0
2018-May-17 22:17N 37°49' E 119°57'0 0.0
2018-May-17 21:59N 37°49' E 119°57'0 0.0
2018-May-17 21:29N 37°49' E 119°57'0 0.1
2018-May-17 20:53N 37°49' E 119°57'0 0.0
2018-May-17 20:29N 37°49' E 119°57'0 0.1
2018-May-17 19:59N 37°49' E 119°57'0 0.2
2018-May-17 19:29N 37°49' E 119°57'0 0.1
2018-May-17 18:59N 37°49' E 119°57'0 0.2
2018-May-17 18:29N 37°49' E 119°57'0 0.1
2018-May-17 17:59N 37°49' E 119°57'0 0.1
2018-May-17 17:29N 37°49' E 119°57'0 0.0
2018-May-17 16:29N 37°49' E 119°57'0 0.0
2018-May-17 15:59N 37°49' E 119°57'0 0.1
2018-May-17 15:29N 37°49' E 119°57'0 0.0
2018-May-17 14:53N 37°49' E 119°57'0 0.1
2018-May-17 14:23N 37°49' E 119°57'0 0.0
2018-May-17 05:53N 37°49' E 119°57'0 0.0
2018-May-17 05:23N 37°49' E 119°57'0 0.0
2018-May-17 04:53N 37°49' E 119°57'0 0.0
2018-May-17 04:29N 37°49' E 119°57'0 0.0
2018-May-17 03:59N 37°49' E 119°57'0 0.0
2018-May-17 03:17N 37°49' E 119°57'0 0.0
2018-May-17 02:59N 37°49' E 119°57'0 0.0
2018-May-17 02:29N 37°49' E 119°57'0 0.0
2018-May-17 01:50N 37°49' E 119°57'0 0.0
2018-May-17 01:29N 37°49' E 119°57'0 0.1
2018-May-17 00:59N 37°49' E 119°57'0 0.0
2018-May-17 00:29N 37°49' E 119°57'0 0.1
2018-May-16 23:53N 37°49' E 119°57'0 0.0
2018-May-16 13:26N 37°49' E 119°57'0 0.0
2018-May-16 12:14N 37°49' E 119°57'0 0.1
2018-May-16 11:47N 37°49' E 119°57'0 0.1
2018-May-16 09:56N 37°49' E 119°57'0 0.6
2018-May-16 09:27N 37°49' E 119°57'13 5.8
2018-May-16 07:10N 37°59' E 120°08'211.4
2018-May-16 07:01N 37°60' E 120°10'611.5
2018-May-16 06:31N 38°02' E 120°17'611.0
2018-May-16 06:01N 38°04' E 120°23'612.5
2018-May-16 05:30N 38°04' E 120°31'713.3
2018-May-16 05:00N 38°02' E 120°39'713.4
2018-May-16 04:30N 38°01' E 120°48'713.1
2018-May-16 04:01N 37°60' E 120°56'612.7
2018-May-16 03:30N 37°58' E 121°04'612.7
2018-May-16 03:00N 37°57' E 121°12'1012.7
2018-May-16 02:13N 37°55' E 121°24'312.4
2018-May-16 02:00N 37°55' E 121°27'612.3
2018-May-16 01:30N 37°54' E 121°35'612.2
2018-May-16 01:01N 37°53' E 121°43'612.2
2018-May-16 00:30N 37°52' E 121°50'  
Track history (hours):
 
Tides and Currents Weather Stations Pressure Air Temp Water Temp Dewpoint Dewpoint Depression Visibility Wind Speed Wind Dir Waves Ship Positions

Hebei Shijiazhuang

Last reported at 2018-May-24 03:46 UTC. Time now 2018-May-26 15:31 UTC.
Position N 30°02' E 124°13'.

Length 235 m.

Type: Cargo ship. MMSI: 477899000.

Date/timePositionNaut miles runAvg speedWind from/ knotsBaromVisibWave heightAir tempDewpointWater temp
2018-May-24 03:46N 30°02' E 124°13'814.3
2018-May-24 03:13N 30°09' E 124°12'514.3
2018-May-24 02:54N 30°14' E 124°12'614.2
2018-May-24 02:29N 30°20' E 124°11'2514.0
2018-May-24 00:40N 30°45' E 124°07'313.5
2018-May-24 00:29N 30°48' E 124°07'613.3
2018-May-24 00:00N 30°54' E 124°06'713.1
2018-May-23 23:30N 31°00' E 124°05'713.2
2018-May-23 23:00N 31°07' E 124°04'613.0
2018-May-23 22:30N 31°13' E 124°03'613.1
2018-May-23 22:00N 31°20' E 124°02'612.7
2018-May-23 21:30N 31°26' E 124°01'712.8
2018-May-23 21:00N 31°33' E 123°60'1113.0
2018-May-23 20:10N 31°43' E 123°58'213.3
2018-May-23 19:59N 31°46' E 123°58'713.5
2018-May-23 19:27N 31°53' E 123°58'713.7
2018-May-23 18:58N 31°60' E 123°57'613.9
2018-May-23 18:30N 32°06' E 123°57'714.5
2018-May-23 18:00N 32°13' E 123°57'714.8
2018-May-23 17:30N 32°21' E 123°57'714.7
2018-May-23 17:00N 32°28' E 123°57'23613.5
2018-May-22 23:32N 36°24' E 123°43'113.9
2018-May-22 23:29N 36°24' E 123°43'814.0
2018-May-22 22:57N 36°32' E 123°43'7413.0
2018-May-22 17:16N 37°36' E 122°56'313.1
2018-May-22 17:00N 37°38' E 122°52'713.0
2018-May-22 16:30N 37°40' E 122°45'612.7
2018-May-22 16:00N 37°43' E 122°38'713.0
2018-May-22 15:30N 37°47' E 122°31'613.0
2018-May-22 15:00N 37°47' E 122°23'713.2
2018-May-22 14:30N 37°47' E 122°15'713.4
2018-May-22 13:57N 37°47' E 122°05'613.2
2018-May-22 13:30N 37°48' E 121°58'713.7
2018-May-22 13:00N 37°50' E 121°50'713.6
2018-May-22 12:31N 37°52' E 121°41'713.5
2018-May-22 12:01N 37°53' E 121°33'713.2
2018-May-22 11:31N 37°54' E 121°25'612.8
2018-May-22 11:00N 37°55' E 121°17'612.4
2018-May-22 10:30N 37°56' E 121°09'612.4
2018-May-22 10:01N 37°58' E 121°01'611.9
2018-May-22 09:29N 37°59' E 120°53'612.1
2018-May-22 09:01N 37°60' E 120°46'611.9
2018-May-22 08:31N 38°01' E 120°39'612.0
2018-May-22 08:01N 38°01' E 120°31'612.3
2018-May-22 07:31N 38°01' E 120°24'612.6
2018-May-22 07:01N 37°59' E 120°16'612.9
2018-May-22 06:30N 37°57' E 120°08'713.3
2018-May-22 06:01N 37°53' E 120°02'713.1
2018-May-22 05:30N 37°48' E 119°56'811.7
2018-May-22 04:51N 37°42' E 119°50'512.5
2018-May-22 04:29N 37°37' E 119°51'612.5
2018-May-22 04:00N 37°32' E 119°54'511.1
2018-May-22 03:31N 37°26' E 119°56'2 3.2
2018-May-22 02:58N 37°25' E 119°57'0 0.0
2018-May-22 02:28N 37°25' E 119°57'0 0.0
2018-May-22 01:58N 37°25' E 119°57'0 0.0
2018-May-22 01:28N 37°25' E 119°57'0 0.0
2018-May-22 00:58N 37°25' E 119°57'0 0.0
2018-May-22 00:28N 37°25' E 119°57'0 0.0
2018-May-21 23:58N 37°25' E 119°57'0 0.0
2018-May-21 23:28N 37°25' E 119°57'0 0.0
2018-May-21 22:58N 37°25' E 119°57'0 0.0
2018-May-21 22:28N 37°25' E 119°57'0 0.0
2018-May-21 21:58N 37°25' E 119°57'0 0.0
2018-May-21 21:28N 37°25' E 119°57'0 0.0
2018-May-21 20:58N 37°25' E 119°57'0 0.0
2018-May-21 20:28N 37°25' E 119°57'0 0.0
2018-May-21 19:58N 37°25' E 119°57'0 0.0
2018-May-21 19:28N 37°25' E 119°57'0 0.0
2018-May-21 18:58N 37°25' E 119°57'0 0.0
2018-May-21 18:28N 37°25' E 119°57'0 0.0
2018-May-21 17:58N 37°25' E 119°57'0 0.0
2018-May-21 17:28N 37°25' E 119°57'0 0.0
2018-May-21 16:58N 37°25' E 119°57'0 0.0
2018-May-21 16:28N 37°25' E 119°57'0 0.0
2018-May-21 15:55N 37°25' E 119°57'0 0.0
2018-May-21 15:28N 37°25' E 119°57'0 0.0
2018-May-21 14:58N 37°25' E 119°57'0 0.0
2018-May-21 14:28N 37°25' E 119°57'0 0.0
2018-May-21 13:58N 37°25' E 119°57'0 0.0
2018-May-21 13:28N 37°25' E 119°57'0 0.0
2018-May-21 12:58N 37°25' E 119°57'0 0.0
2018-May-21 12:28N 37°25' E 119°57'0 0.0
2018-May-21 11:58N 37°25' E 119°57'0 0.0
2018-May-21 11:28N 37°25' E 119°57'0 0.0
2018-May-21 10:58N 37°25' E 119°57'0 0.0
2018-May-21 10:28N 37°25' E 119°57'0 0.0
2018-May-21 09:55N 37°25' E 119°57'0 0.0
2018-May-21 09:28N 37°25' E 119°57'0 0.0
2018-May-21 08:52N 37°25' E 119°57'0 0.0
2018-May-21 08:28N 37°25' E 119°57'0 0.0
2018-May-21 07:58N 37°25' E 119°57'0 0.0
2018-May-21 07:28N 37°25' E 119°57'0 0.0
2018-May-21 06:58N 37°25' E 119°57'0 0.0
2018-May-21 06:28N 37°25' E 119°57'0 0.0
2018-May-21 05:58N 37°25' E 119°57'0 0.0
2018-May-21 05:28N 37°25' E 119°57'0 0.0
2018-May-21 04:58N 37°25' E 119°57'0 0.0
2018-May-21 04:28N 37°25' E 119°57'0 0.0
2018-May-21 03:58N 37°25' E 119°57'0 0.0
2018-May-21 03:28N 37°25' E 119°57'0 0.0
2018-May-21 02:58N 37°25' E 119°57'0 0.0
2018-May-21 02:28N 37°25' E 119°57'0 0.0
2018-May-21 01:58N 37°25' E 119°57'0 0.0
2018-May-21 01:28N 37°25' E 119°57'0 0.0
2018-May-21 00:58N 37°25' E 119°57'0 0.0
2018-May-21 00:28N 37°25' E 119°57'0 0.0
2018-May-20 23:58N 37°25' E 119°57'0 0.0
2018-May-20 23:28N 37°25' E 119°57'0 0.0
2018-May-20 22:58N 37°25' E 119°57'0 0.0
2018-May-20 22:28N 37°25' E 119°57'0 0.0
2018-May-20 21:58N 37°25' E 119°57'0 0.0
2018-May-20 21:28N 37°25' E 119°57'0 0.0
2018-May-20 20:58N 37°25' E 119°57'0 0.0
2018-May-20 20:25N 37°25' E 119°57'0 0.0
2018-May-20 19:58N 37°25' E 119°57'0 0.0
2018-May-20 19:28N 37°25' E 119°57'0 0.0
2018-May-20 18:58N 37°25' E 119°57'0 0.0
2018-May-20 18:28N 37°25' E 119°57'0 0.0
2018-May-20 17:58N 37°25' E 119°57'0 0.0
2018-May-20 17:28N 37°25' E 119°57'0 0.0
2018-May-20 16:58N 37°25' E 119°57'0 0.0
2018-May-20 16:28N 37°25' E 119°57'0 0.0
2018-May-20 15:58N 37°25' E 119°57'0 0.0
2018-May-20 15:28N 37°25' E 119°57'0 0.0
2018-May-20 14:58N 37°25' E 119°57'0 0.0
2018-May-20 14:28N 37°25' E 119°57'0 0.0
2018-May-20 13:58N 37°25' E 119°57'0 0.0
2018-May-20 13:28N 37°25' E 119°57'0 0.0
2018-May-20 12:58N 37°25' E 119°57'0 0.0
2018-May-20 12:28N 37°25' E 119°57'0 0.0
2018-May-20 11:58N 37°25' E 119°57'0 0.0
2018-May-20 11:28N 37°25' E 119°57'0 0.0
2018-May-20 10:58N 37°25' E 119°57'0 0.0
2018-May-20 10:28N 37°25' E 119°57'0 0.0
2018-May-20 09:58N 37°25' E 119°57'0 0.0
2018-May-20 09:28N 37°25' E 119°57'0 0.0
2018-May-20 08:58N 37°25' E 119°57'0 0.0
2018-May-20 08:28N 37°25' E 119°57'0 0.0
2018-May-20 07:58N 37°25' E 119°57'0 0.0
2018-May-20 07:28N 37°25' E 119°57'0 0.0
2018-May-20 06:55N 37°25' E 119°57'0 0.0
2018-May-20 06:28N 37°25' E 119°57'0 0.0
2018-May-20 05:58N 37°25' E 119°57'0 0.0
2018-May-20 05:28N 37°25' E 119°57'0 0.0
2018-May-20 04:58N 37°25' E 119°57'0 0.0
2018-May-20 04:28N 37°25' E 119°57'0 0.0
2018-May-20 03:58N 37°25' E 119°57'0 0.0
2018-May-20 03:28N 37°25' E 119°57'0 0.0
2018-May-20 02:52N 37°25' E 119°57'0 0.0
2018-May-20 02:25N 37°25' E 119°57'0 0.0
2018-May-20 01:58N 37°25' E 119°57'0 0.0
2018-May-20 01:28N 37°25' E 119°57'0 0.0
2018-May-20 00:58N 37°25' E 119°57'0 0.0
2018-May-20 00:28N 37°25' E 119°57'0 0.0
2018-May-19 23:55N 37°25' E 119°57'0 0.0
2018-May-19 23:28N 37°25' E 119°57'0 0.0
2018-May-19 22:58N 37°25' E 119°57'0 0.0
2018-May-19 22:28N 37°25' E 119°57'0 0.0
2018-May-19 21:55N 37°25' E 119°57'0 0.0
2018-May-19 21:28N 37°25' E 119°57'0 0.0
2018-May-19 20:58N 37°25' E 119°57'0 0.0
2018-May-19 20:28N 37°25' E 119°57'0 0.0
2018-May-19 19:58N 37°25' E 119°57'0 0.0
2018-May-19 19:28N 37°25' E 119°57'0 0.0
2018-May-19 18:58N 37°25' E 119°57'0 0.0
2018-May-19 18:28N 37°25' E 119°57'0 0.0
2018-May-19 17:58N 37°25' E 119°57'0 0.0
2018-May-19 17:28N 37°25' E 119°57'0 0.0
2018-May-19 16:58N 37°25' E 119°57'0 0.0
2018-May-19 16:28N 37°25' E 119°57'0 0.0
2018-May-19 15:58N 37°25' E 119°57'0 0.0
2018-May-19 15:28N 37°25' E 119°57'0 0.0
2018-May-19 14:58N 37°25' E 119°57'0 0.0
2018-May-19 14:28N 37°25' E 119°57'0 0.0
2018-May-19 13:58N 37°25' E 119°57'0 0.0
2018-May-19 13:28N 37°25' E 119°57'0 0.0
2018-May-19 12:58N 37°25' E 119°57'0 0.0
2018-May-19 12:28N 37°25' E 119°57'0 0.0
2018-May-19 11:58N 37°25' E 119°57'0 0.0
2018-May-19 11:28N 37°25' E 119°57'0 0.0
2018-May-19 10:58N 37°25' E 119°57'0 0.0
2018-May-19 10:28N 37°25' E 119°57'0 0.0
2018-May-19 09:58N 37°25' E 119°57'0 0.0
2018-May-19 09:28N 37°25' E 119°57'0 0.0
2018-May-19 08:58N 37°25' E 119°57'0 0.0
2018-May-19 08:25N 37°25' E 119°57'0 0.0
2018-May-19 07:58N 37°25' E 119°57'0 0.0
2018-May-19 07:28N 37°25' E 119°57'0 0.0
2018-May-19 06:58N 37°25' E 119°57'0 0.0
2018-May-19 06:28N 37°25' E 119°57'0 0.0
2018-May-19 06:00N 37°25' E 119°57'0 0.1
2018-May-19 05:30N 37°25' E 119°57'1 1.3
2018-May-19 05:00N 37°26' E 119°57'4 7.5
2018-May-19 04:30N 37°29' E 119°58'4 8.0
2018-May-19 03:59N 37°33' E 119°60'611.7
2018-May-19 03:30N 37°39' E 120°00'612.2
2018-May-19 03:00N 37°45' E 119°60'4 8.1
2018-May-19 02:30N 37°48' E 119°57'1 0.9
2018-May-19 01:53N 37°49' E 119°57'0 0.1
2018-May-19 01:26N 37°49' E 119°57'0 0.0
2018-May-19 00:41N 37°49' E 119°57'0 0.0
2018-May-19 00:29N 37°49' E 119°57'0 0.0
2018-May-18 23:50N 37°49' E 119°57'0 0.1
2018-May-18 23:29N 37°49' E 119°57'0 0.0
2018-May-18 22:59N 37°49' E 119°57'0 0.1
2018-May-18 22:23N 37°49' E 119°57'0 0.0
2018-May-18 21:56N 37°49' E 119°57'0 0.0
2018-May-18 21:29N 37°49' E 119°57'0 0.0
2018-May-18 20:59N 37°49' E 119°57'0 0.0
2018-May-18 20:29N 37°49' E 119°57'0 0.1
2018-May-18 19:47N 37°49' E 119°57'0 0.2
2018-May-18 19:20N 37°49' E 119°57'0 0.2
2018-May-18 18:59N 37°49' E 119°57'0 0.1
2018-May-18 18:26N 37°49' E 119°57'0 0.1
2018-May-18 17:59N 37°49' E 119°57'0 0.0
2018-May-18 17:29N 37°49' E 119°57'0 0.1
2018-May-18 16:59N 37°49' E 119°57'0 0.0
2018-May-18 16:29N 37°49' E 119°57'0 0.0
2018-May-18 15:59N 37°49' E 119°57'0 0.0
2018-May-18 15:23N 37°49' E 119°57'0 0.1
2018-May-18 14:59N 37°49' E 119°57'0 0.0
2018-May-18 14:29N 37°49' E 119°57'0 0.0
2018-May-18 13:56N 37°49' E 119°57'0 0.1
2018-May-18 13:17N 37°49' E 119°57'0 0.1
2018-May-18 12:50N 37°49' E 119°57'0 0.1
2018-May-18 12:29N 37°49' E 119°57'0 0.1
2018-May-18 11:56N 37°49' E 119°57'0 0.1
2018-May-18 11:29N 37°49' E 119°57'0 0.1
2018-May-18 10:56N 37°49' E 119°57'0 0.1
2018-May-18 10:29N 37°49' E 119°57'0 0.1
2018-May-18 09:59N 37°49' E 119°57'0 0.0
2018-May-18 09:29N 37°49' E 119°57'0 0.1
2018-May-18 08:59N 37°49' E 119°57'0 0.0
2018-May-18 08:29N 37°49' E 119°57'0 0.1
2018-May-18 07:59N 37°49' E 119°57'0 0.1
2018-May-18 07:29N 37°49' E 119°57'0 0.0
2018-May-18 06:59N 37°49' E 119°57'0 0.0
2018-May-18 06:29N 37°49' E 119°57'0 0.0
2018-May-18 05:59N 37°49' E 119°57'0 0.0
2018-May-18 05:29N 37°49' E 119°57'0 0.0
2018-May-18 04:59N 37°49' E 119°57'0 0.0
2018-May-18 04:29N 37°49' E 119°57'0 0.0
2018-May-18 03:59N 37°49' E 119°57'0 0.1
2018-May-18 03:29N 37°49' E 119°57'0 0.0
2018-May-18 02:59N 37°49' E 119°57'0 0.1
2018-May-18 02:29N 37°49' E 119°57'0 0.1
2018-May-18 00:32N 37°49' E 119°57'0 0.1
2018-May-18 00:29N 37°49' E 119°57'0 0.0
2018-May-17 23:59N 37°49' E 119°57'0 0.1
2018-May-17 23:29N 37°49' E 119°57'0 0.1
2018-May-17 22:59N 37°49' E 119°57'0 0.0
2018-May-17 22:17N 37°49' E 119°57'0 0.0
2018-May-17 21:59N 37°49' E 119°57'0 0.0
2018-May-17 21:29N 37°49' E 119°57'0 0.1
2018-May-17 20:53N 37°49' E 119°57'0 0.0
2018-May-17 20:29N 37°49' E 119°57'0 0.1
2018-May-17 19:59N 37°49' E 119°57'0 0.2
2018-May-17 19:29N 37°49' E 119°57'0 0.1
2018-May-17 18:59N 37°49' E 119°57'0 0.2
2018-May-17 18:29N 37°49' E 119°57'0 0.1
2018-May-17 17:59N 37°49' E 119°57'0 0.1
2018-May-17 17:29N 37°49' E 119°57'0 0.0
2018-May-17 16:29N 37°49' E 119°57'0 0.0
2018-May-17 15:59N 37°49' E 119°57'0 0.1
2018-May-17 15:29N 37°49' E 119°57'0 0.0
2018-May-17 14:53N 37°49' E 119°57'0 0.1
2018-May-17 14:23N 37°49' E 119°57'0 0.0
2018-May-17 05:53N 37°49' E 119°57'0 0.0
2018-May-17 05:23N 37°49' E 119°57'0 0.0
2018-May-17 04:53N 37°49' E 119°57'0 0.0
2018-May-17 04:29N 37°49' E 119°57'0 0.0
2018-May-17 03:59N 37°49' E 119°57'0 0.0
2018-May-17 03:17N 37°49' E 119°57'0 0.0
2018-May-17 02:59N 37°49' E 119°57'0 0.0
2018-May-17 02:29N 37°49' E 119°57'0 0.0
2018-May-17 01:50N 37°49' E 119°57'0 0.0
2018-May-17 01:29N 37°49' E 119°57'0 0.1
2018-May-17 00:59N 37°49' E 119°57'0 0.0
2018-May-17 00:29N 37°49' E 119°57'0 0.1
2018-May-16 23:53N 37°49' E 119°57'0 0.0
2018-May-16 13:26N 37°49' E 119°57'0 0.0
2018-May-16 12:14N 37°49' E 119°57'0 0.1
2018-May-16 11:47N 37°49' E 119°57'0 0.1
2018-May-16 09:56N 37°49' E 119°57'0 0.6
2018-May-16 09:27N 37°49' E 119°57'13 5.8
2018-May-16 07:10N 37°59' E 120°08'211.4
2018-May-16 07:01N 37°60' E 120°10'611.5
2018-May-16 06:31N 38°02' E 120°17'611.0
2018-May-16 06:01N 38°04' E 120°23'612.5
2018-May-16 05:30N 38°04' E 120°31'713.3
2018-May-16 05:00N 38°02' E 120°39'713.4
2018-May-16 04:30N 38°01' E 120°48'713.1
2018-May-16 04:01N 37°60' E 120°56'612.7
2018-May-16 03:30N 37°58' E 121°04'612.7
2018-May-16 03:00N 37°57' E 121°12'1012.7
2018-May-16 02:13N 37°55' E 121°24'312.4
2018-May-16 02:00N 37°55' E 121°27'612.3
2018-May-16 01:30N 37°54' E 121°35'612.2
2018-May-16 01:01N 37°53' E 121°43'612.2
2018-May-16 00:30N 37°52' E 121°50'  

Dump ship's entire track history